Time;durP1;ratioP1;P1;durP2;ratioP2;P2;SDS_P1;SDS_P2;PMS_P1;PMS_P2;Temp;Humidity;BMP_temperature;BMP_pressure;BME280_temperature;BME280_humidity;BME280_pressure;Samples;Min_cycle;Max_cycle;Signal;HPM_P1;HPM_P2
2021/04/19 00:01:59;;;;;;;27.25;20.75;;;6.80;91.40;;;;;;6243657;22;20100;-39
2021/04/19 00:04:26;;;;;;;32.28;20.52;;;6.80;91.30;;;;;;6267238;22;20024;-39
2021/04/19 00:06:52;;;;;;;32.25;22.95;;;6.80;91.30;;;;;;6270864;22;20019;-39
2021/04/19 00:09:18;;;;;;;32.33;22.52;;;6.70;91.30;;;;;;6270396;22;20023;-39
2021/04/19 00:11:44;;;;;;;28.77;22.15;;;6.70;91.40;;;;;;6270113;22;20015;-39
2021/04/19 00:14:11;;;;;;;28.45;20.98;;;6.70;91.50;;;;;;6218839;22;20098;-39
2021/04/19 00:16:37;;;;;;;31.48;21.08;;;6.60;91.30;;;;;;6270216;22;20031;-39
2021/04/19 00:19:03;;;;;;;26.67;21.23;;;6.70;91.40;;;;;;6270650;22;20039;-39
2021/04/19 00:21:29;;;;;;;30.15;20.63;;;6.60;91.50;;;;;;6270279;22;20352;-39
2021/04/19 00:23:56;;;;;;;31.70;22.45;;;6.60;91.60;;;;;;6243353;22;20022;-39
2021/04/19 00:26:26;;;;;;;28.50;22.05;;;6.60;91.60;;;;;;6270989;22;20020;-39
2021/04/19 00:28:52;;;;;;;31.30;22.85;;;6.50;91.60;;;;;;6270845;22;20037;-39
2021/04/19 00:31:18;;;;;;;28.98;21.30;;;6.50;91.50;;;;;;6242467;22;20464;-39
2021/04/19 00:33:45;;;;;;;29.27;22.70;;;6.50;91.50;;;;;;6270497;22;20408;-39
2021/04/19 00:36:11;;;;;;;29.42;22.88;;;6.40;91.80;;;;;;6242860;22;20035;-39
2021/04/19 00:38:37;;;;;;;26.77;20.27;;;6.50;91.70;;;;;;6270886;22;20077;-39
2021/04/19 00:41:05;;;;;;;30.63;21.90;;;6.50;91.80;;;;;;6270286;22;20015;-39
2021/04/19 00:43:32;;;;;;;26.95;20.52;;;6.40;91.90;;;;;;6270525;22;20016;-39
2021/04/19 00:46:06;;;;;;;34.28;22.30;;;6.40;91.90;;;;;;6269687;22;20479;-39
2021/04/19 00:48:38;;;;;;;30.13;21.73;;;6.40;91.90;;;;;;6269710;22;20543;-39
2021/04/19 00:51:07;;;;;;;28.55;21.90;;;6.40;91.60;;;;;;6243533;22;20019;-39
2021/04/19 00:53:38;;;;;;;31.60;21.92;;;6.30;91.80;;;;;;6269363;22;20452;-40
2021/04/19 00:56:05;;;;;;;30.63;22.13;;;6.30;91.80;;;;;;6269830;22;20046;-40
2021/04/19 00:58:36;;;;;;;28.83;21.45;;;6.40;91.90;;;;;;6269589;22;20529;-40
2021/04/19 01:01:05;;;;;;;26.33;20.80;;;6.50;92.00;;;;;;6253148;22;20020;-40
2021/04/19 01:03:32;;;;;;;28.55;21.75;;;6.50;91.90;;;;;;6270277;22;20023;-40
2021/04/19 01:05:59;;;;;;;28.60;21.05;;;6.50;91.70;;;;;;6270004;22;20459;-40
2021/04/19 01:08:27;;;;;;;28.20;21.05;;;6.50;91.90;;;;;;6243144;22;20340;-40
2021/04/19 01:10:53;;;;;;;28.05;22.30;;;6.60;91.90;;;;;;6269744;22;20543;-40
2021/04/19 01:13:19;;;;;;;27.05;21.70;;;6.60;91.90;;;;;;6270281;22;20083;-40
2021/04/19 01:15:46;;;;;;;28.35;21.27;;;6.60;92.00;;;;;;6244244;22;20329;-40
2021/04/19 01:18:12;;;;;;;27.40;22.15;;;6.70;91.80;;;;;;6270024;22;20471;-40
2021/04/19 01:20:42;;;;;;;27.40;20.52;;;6.70;91.80;;;;;;6218105;22;20045;-39
2021/04/19 01:23:08;;;;;;;30.27;22.20;;;6.70;91.90;;;;;;6243046;22;20015;-39
2021/04/19 01:25:37;;;;;;;28.98;21.38;;;6.80;92.00;;;;;;6253667;22;20485;-39
2021/04/19 01:28:06;;;;;;;29.33;21.63;;;6.80;91.80;;;;;;6280724;22;20420;-39
2021/04/19 01:30:39;;;;;;;26.13;20.90;;;6.80;91.80;;;;;;6270824;22;20043;-39
2021/04/19 01:33:05;;;;;;;;;;;6.90;91.80;;;;;;6243481;22;20023;-39
2021/04/19 01:35:33;;;;;;;28.35;20.70;;;6.90;92.00;;;;;;6275057;22;19919;-40
2021/04/19 01:38:00;;;;;;;32.22;20.33;;;7.00;91.70;;;;;;6243143;22;20085;-40
2021/04/19 01:40:29;;;;;;;28.88;22.08;;;7.00;91.60;;;;;;6243196;22;20023;-40
2021/04/19 01:42:56;;;;;;;31.98;21.58;;;7.00;91.70;;;;;;6253578;22;20066;-40
2021/04/19 01:45:22;;;;;;;28.95;21.55;;;7.00;91.80;;;;;;6269504;22;20043;-40
2021/04/19 01:47:49;;;;;;;26.65;21.27;;;7.00;91.60;;;;;;6242795;22;20054;-40
2021/04/19 01:50:24;;;;;;;28.95;22.25;;;7.00;91.50;;;;;;6252487;22;20639;-40
2021/04/19 01:53:00;;;;;;;28.98;22.25;;;7.00;91.70;;;;;;6243310;22;20012;-40
2021/04/19 01:55:30;;;;;;;26.75;20.00;;;7.00;91.60;;;;;;6243393;22;20097;-40
2021/04/19 01:58:01;;;;;;;27.05;20.05;;;7.10;91.50;;;;;;6253547;22;20107;-40
2021/04/19 02:00:31;;;;;;;32.53;21.77;;;7.10;91.60;;;;;;6243069;22;20026;-40
2021/04/19 02:03:05;;;;;;;28.70;21.50;;;7.00;91.60;;;;;;6242009;22;20494;-40
2021/04/19 02:05:50;;;;;;;;;;;7.10;91.70;;;;;;6270171;22;20027;-40
2021/04/19 02:08:41;;;;;;;26.92;20.25;;;7.10;91.70;;;;;;6252437;22;19965;-41
2021/04/19 02:11:37;;;;;;;25.75;20.90;;;7.10;91.60;;;;;;6254125;22;20019;-40
2021/04/19 02:14:10;;;;;;;27.95;21.13;;;7.20;91.60;;;;;;6255387;22;20039;-40
2021/04/19 02:16:49;;;;;;;29.20;21.40;;;7.20;91.40;;;;;;6244869;22;20039;-40
2021/04/19 02:19:24;;;;;;;30.98;23.10;;;7.20;91.50;;;;;;6246736;22;20123;-40
2021/04/19 02:21:57;;;;;;;26.50;22.38;;;7.20;91.50;;;;;;6248447;22;20019;-40
2021/04/19 02:24:26;;;;;;;25.10;21.05;;;7.20;91.50;;;;;;6271725;22;20094;-39
2021/04/19 02:26:55;;;;;;;22.75;19.08;;;7.30;91.40;;;;;;6270966;22;20016;-39
2021/04/19 02:29:40;;;;;;;26.58;21.20;;;7.40;91.30;;;;;;6244782;22;20088;-40
2021/04/19 02:32:20;;;;;;;25.98;20.00;;;7.40;91.40;;;;;;6244338;22;20530;-39
2021/04/19 02:34:53;;;;;;;26.08;20.45;;;7.40;91.30;;;;;;6255675;22;20103;-39
2021/04/19 02:37:23;;;;;;;28.85;19.98;;;7.40;91.20;;;;;;6244192;22;20023;-40
2021/04/19 02:39:51;;;;;;;28.77;21.70;;;7.40;91.20;;;;;;6271685;22;20026;-40
2021/04/19 02:42:20;;;;;;;25.25;21.80;;;7.50;91.20;;;;;;6271518;22;20016;-40
2021/04/19 02:44:52;;;;;;;26.67;21.02;;;7.50;91.10;;;;;;6244829;22;20012;-40
2021/04/19 02:47:47;;;;;;;27.20;20.15;;;7.50;91.30;;;;;;6271314;22;20015;-41
2021/04/19 02:50:26;;;;;;;27.02;21.20;;;7.60;91.40;;;;;;6246076;22;20051;-40
2021/04/19 02:52:53;;;;;;;32.47;23.02;;;7.60;91.50;;;;;;6271898;22;20020;-40
2021/04/19 02:55:26;;;;;;;27.23;21.38;;;7.60;91.70;;;;;;6282431;22;20043;-40
2021/04/19 02:57:57;;;;;;;29.13;22.27;;;7.60;91.60;;;;;;6245066;22;20020;-43
2021/04/19 03:00:30;;;;;;;23.35;19.90;;;7.60;91.60;;;;;;6281915;22;20022;-40
2021/04/19 03:03:00;;;;;;;28.75;22.95;;;7.60;91.70;;;;;;6244227;22;20030;-40
2021/04/19 03:05:31;;;;;;;26.17;21.88;;;7.70;91.90;;;;;;6238763;23;20024;-40
2021/04/19 03:08:03;;;;;;;27.25;22.45;;;7.70;91.80;;;;;;6238337;23;20016;-39
2021/04/19 03:10:35;;;;;;;26.70;21.10;;;7.60;91.80;;;;;;6238938;23;20016;-40
2021/04/19 03:13:03;;;;;;;26.85;21.40;;;7.70;91.80;;;;;;6238555;23;20321;-40
2021/04/19 03:15:36;;;;;;;25.33;21.70;;;7.80;91.80;;;;;;6240880;22;20016;-39
2021/04/19 03:18:15;;;;;;;26.42;21.90;;;7.70;91.70;;;;;;6240908;22;20015;-39
2021/04/19 03:21:16;;;;;;;28.48;22.50;;;7.70;91.70;;;;;;6240722;23;20062;-39
2021/04/19 03:23:57;;;;;;;28.45;20.35;;;7.70;91.70;;;;;;6239435;23;20031;-39
2021/04/19 03:26:34;;;;;;;25.45;21.35;;;7.70;92.10;;;;;;6216034;23;20020;-39
2021/04/19 03:29:04;;;;;;;27.67;21.67;;;7.70;91.80;;;;;;6238937;23;20043;-40
2021/04/19 03:31:53;;;;;;;27.08;19.48;;;7.70;91.80;;;;;;6238885;23;20027;-40
2021/04/19 03:34:26;;;;;;;26.60;21.42;;;7.60;91.80;;;;;;6240634;22;20691;-40
2021/04/19 03:37:30;;;;;;;26.05;20.92;;;7.60;91.90;;;;;;6239347;23;20091;-40
2021/04/19 03:40:21;;;;;;;22.23;19.83;;;7.60;91.70;;;;;;6238990;23;20027;-40
2021/04/19 03:42:54;;;;;;;26.08;20.40;;;7.60;91.70;;;;;;6238654;23;20070;-39
2021/04/19 03:45:24;;;;;;;25.13;20.92;;;7.50;91.70;;;;;;6249142;23;20099;-40
2021/04/19 03:48:13;;;;;;;23.20;19.27;;;7.40;92.00;;;;;;6239858;22;20445;-40
2021/04/19 03:50:57;;;;;;;25.25;19.95;;;7.30;91.60;;;;;;6238969;23;20042;-40
2021/04/19 03:53:26;;;;;;;23.90;20.17;;;7.30;91.70;;;;;;6240538;22;20016;-40
2021/04/19 03:55:56;;;;;;;25.45;20.02;;;7.20;91.80;;;;;;6240614;22;20016;-40
2021/04/19 03:58:25;;;;;;;24.42;21.10;;;7.30;91.80;;;;;;6240805;22;20597;-40
2021/04/19 04:00:53;;;;;;;27.20;21.75;;;7.30;91.90;;;;;;6241452;22;20112;-40
2021/04/19 04:03:44;;;;;;;24.55;20.77;;;7.20;91.80;;;;;;6238946;23;20356;-40
2021/04/19 04:06:19;;;;;;;25.70;20.50;;;7.20;91.90;;;;;;6238959;23;20107;-40
2021/04/19 04:08:51;;;;;;;25.63;20.23;;;7.20;91.90;;;;;;6249186;23;20012;-40
2021/04/19 04:11:20;;;;;;;28.43;21.17;;;7.20;91.90;;;;;;6238581;23;20016;-40
2021/04/19 04:13:53;;;;;;;24.92;19.48;;;7.30;92.00;;;;;;6238871;23;20099;-40
2021/04/19 04:16:20;;;;;;;24.67;20.40;;;7.30;91.90;;;;;;6238918;23;20016;-41
2021/04/19 04:19:03;;;;;;;24.85;20.40;;;7.30;91.90;;;;;;6240136;22;20020;-40
2021/04/19 04:21:33;;;;;;;27.13;21.13;;;7.30;92.00;;;;;;6238156;23;20460;-40
2021/04/19 04:24:09;;;;;;;23.08;19.70;;;7.30;91.90;;;;;;6238614;23;20016;-40
2021/04/19 04:26:39;;;;;;;25.02;20.35;;;7.30;91.90;;;;;;6213553;23;20198;-40
2021/04/19 04:29:05;;;;;;;29.75;20.25;;;7.30;92.00;;;;;;6238274;23;20028;-40
2021/04/19 04:31:39;;;;;;;23.67;20.80;;;7.40;91.90;;;;;;6238802;23;20016;-40
2021/04/19 04:34:10;;;;;;;23.38;20.52;;;7.40;91.90;;;;;;6248672;23;20731;-40
2021/04/19 04:36:37;;;;;;;27.13;19.73;;;7.40;92.00;;;;;;6238335;23;20020;-40
2021/04/19 04:39:08;;;;;;;25.13;19.33;;;7.50;91.90;;;;;;6237979;23;20102;-40
2021/04/19 04:41:51;;;;;;;28.20;18.65;;;7.50;92.00;;;;;;6212541;23;20020;-40
2021/04/19 04:44:25;;;;;;;24.77;19.02;;;7.70;91.90;;;;;;6240572;22;20059;-40
2021/04/19 04:47:19;;;;;;;22.00;18.42;;;7.80;91.70;;;;;;6240008;22;20349;-40
2021/04/19 04:50:08;;;;;;;23.23;18.42;;;7.80;91.50;;;;;;6238301;23;20016;-40
2021/04/19 04:52:55;;;;;;;21.02;18.20;;;7.90;91.30;;;;;;6239483;23;20091;-40
2021/04/19 04:55:23;;;;;;;23.85;17.70;;;7.90;91.20;;;;;;6249592;22;20027;-40
2021/04/19 04:57:54;;;;;;;25.05;16.65;;;7.90;91.20;;;;;;6239129;22;20020;-40
2021/04/19 05:00:23;;;;;;;25.95;18.33;;;7.80;91.20;;;;;;6239125;22;20027;-40
2021/04/19 05:02:52;;;;;;;23.80;18.13;;;7.80;91.10;;;;;;6239470;22;20043;-40
2021/04/19 05:05:18;;;;;;;20.58;18.38;;;7.90;91.10;;;;;;6252693;22;20030;-40
2021/04/19 05:07:46;;;;;;;21.63;18.52;;;7.80;91.20;;;;;;6242749;22;20019;-40
2021/04/19 05:10:15;;;;;;;22.58;18.65;;;7.80;91.10;;;;;;6269775;22;20016;-40
2021/04/19 05:12:50;;;;;;;24.50;18.25;;;7.90;91.20;;;;;;6269968;22;20046;-40
2021/04/19 05:15:20;;;;;;;23.17;18.58;;;7.90;91.10;;;;;;6269088;22;20464;-40
2021/04/19 05:17:46;;;;;;;23.70;18.10;;;7.90;91.10;;;;;;6243190;22;20069;-40
2021/04/19 05:20:15;;;;;;;20.35;17.30;;;8.00;91.20;;;;;;6279702;22;20019;-40
2021/04/19 05:22:42;;;;;;;21.08;16.80;;;8.00;91.20;;;;;;6269559;22;20102;-40
2021/04/19 05:25:09;;;;;;;20.30;15.35;;;8.10;91.20;;;;;;6269882;22;20019;-40
2021/04/19 05:27:35;;;;;;;20.55;16.85;;;8.10;91.10;;;;;;6269736;22;20020;-40
2021/04/19 05:30:03;;;;;;;22.40;15.20;;;8.20;91.00;;;;;;6270122;22;20023;-40
2021/04/19 05:32:29;;;;;;;21.00;15.95;;;8.30;90.80;;;;;;6269637;22;20026;-40
2021/04/19 05:34:57;;;;;;;19.70;15.88;;;8.40;90.60;;;;;;6242494;22;20445;-41
2021/04/19 05:37:30;;;;;;;18.95;14.25;;;8.40;90.50;;;;;;6269665;22;20016;-41
2021/04/19 05:40:00;;;;;;;18.35;14.80;;;8.50;90.50;;;;;;6268528;22;20015;-41
2021/04/19 05:42:28;;;;;;;18.08;13.52;;;8.50;90.40;;;;;;6280318;22;20027;-41
2021/04/19 05:44:56;;;;;;;19.23;14.02;;;8.70;90.20;;;;;;6281900;22;20027;-40
2021/04/19 05:47:22;;;;;;;17.63;13.00;;;8.90;90.00;;;;;;6244865;22;20089;-41
2021/04/19 05:49:49;;;;;;;14.32;12.70;;;9.20;89.90;;;;;;6271727;22;20012;-41
2021/04/19 05:52:15;;;;;;;14.15;12.65;;;9.40;88.80;;;;;;6271177;22;20016;-41
2021/04/19 05:54:42;;;;;;;16.60;12.20;;;9.50;88.40;;;;;;6271685;22;20047;-41
2021/04/19 05:57:11;;;;;;;14.52;12.05;;;9.60;88.10;;;;;;6271995;22;20046;-40
2021/04/19 05:59:49;;;;;;;15.65;11.68;;;9.60;88.50;;;;;;6270294;22;20054;-41
2021/04/19 06:02:53;;;;;;;20.05;17.23;;;9.60;88.60;;;;;;6271322;22;20020;-45
2021/04/19 06:05:50;;;;;;;16.90;12.35;;;9.60;87.90;;;;;;6146336;23;20034;-45
2021/04/19 06:08:27;;;;;;;15.20;12.13;;;9.50;88.70;;;;;;6059496;23;20134;-44
2021/04/19 06:11:29;;;;;;;18.73;13.43;;;9.60;89.20;;;;;;6075086;23;20050;-45
2021/04/19 06:14:38;;;;;;;18.20;13.10;;;9.70;88.90;;;;;;6040411;23;20023;-44
2021/04/19 06:17:10;;;;;;;12.73;11.10;;;9.80;88.10;;;;;;6058866;23;20030;-41
2021/04/19 06:19:43;;;;;;;21.92;15.98;;;9.90;88.80;;;;;;6059373;23;20042;-43
2021/04/19 06:22:16;;;;;;;14.48;10.52;;;10.00;88.50;;;;;;6059221;23;20093;-43
2021/04/19 06:24:49;;;;;;;25.45;19.67;;;10.10;87.60;;;;;;6069021;23;20022;-42
2021/04/19 06:27:25;;;;;;;18.98;15.25;;;10.30;87.10;;;;;;6059653;23;20053;-46
2021/04/19 06:30:20;;;;;;;14.80;11.75;;;10.40;86.50;;;;;;6059286;23;20775;-48
2021/04/19 06:32:49;;;;;;;17.85;12.52;;;10.30;85.20;;;;;;6036820;23;20098;-46
2021/04/19 06:35:17;;;;;;;16.63;10.80;;;10.50;86.20;;;;;;6069394;23;20064;-44
2021/04/19 06:37:50;;;;;;;13.13;11.38;;;10.60;85.20;;;;;;6035675;23;20044;-44
2021/04/19 06:40:22;;;;;;;63.40;48.30;;;10.80;84.40;;;;;;6073709;23;20057;-41
2021/04/19 06:42:50;;;;;;;26.58;20.77;;;11.20;83.30;;;;;;6117933;23;20113;-42
2021/04/19 06:45:16;;;;;;;31.48;25.73;;;11.40;82.60;;;;;;6183154;23;20373;-42
2021/04/19 06:47:47;;;;;;;17.20;14.15;;;11.70;80.70;;;;;;6240428;23;20016;-47
2021/04/19 06:50:16;;;;;;;21.42;18.27;;;12.00;81.30;;;;;;6239977;23;20119;-48
2021/04/19 06:52:57;;;;;;;31.52;26.90;;;12.30;79.70;;;;;;6240282;23;20016;-47
2021/04/19 06:55:33;;;;;;;31.95;27.55;;;12.60;77.50;;;;;;6250198;23;20023;-46
2021/04/19 06:58:06;;;;;;;15.93;12.93;;;12.80;77.60;;;;;;6250159;23;20020;-44
2021/04/19 07:00:43;;;;;;;29.90;24.38;;;12.90;75.40;;;;;;6213037;23;20085;-43
2021/04/19 07:03:10;;;;;;;16.75;13.05;;;13.20;76.30;;;;;;6240135;23;20459;-46
2021/04/19 07:05:37;;;;;;;21.95;16.67;;;13.40;74.90;;;;;;6257118;22;20032;-45
2021/04/19 07:08:28;;;;;;;107.25;96.43;;;13.10;74.60;;;;;;6269612;22;20016;-44
2021/04/19 07:11:05;;;;;;;36.72;32.78;;;12.80;75.20;;;;;;6280901;22;20023;-45
2021/04/19 07:13:38;;;;;;;32.00;27.77;;;12.50;74.90;;;;;;6271057;22;20028;-43
2021/04/19 07:16:06;;;;;;;20.63;16.85;;;12.50;76.00;;;;;;6243259;22;20020;-47
2021/04/19 07:18:36;;;;;;;20.25;17.55;;;12.80;75.40;;;;;;6218615;22;20102;-43
2021/04/19 07:21:02;;;;;;;19.58;16.92;;;13.20;74.60;;;;;;6270205;22;20031;-45
2021/04/19 07:23:29;;;;;;;16.80;14.50;;;13.50;73.40;;;;;;6243307;22;20471;-45
2021/04/19 07:25:58;;;;;;;21.45;18.02;;;14.00;72.50;;;;;;6280407;22;20050;-49
2021/04/19 07:28:24;;;;;;;19.85;17.75;;;14.10;71.20;;;;;;6280627;22;20037;-44
2021/04/19 07:30:58;;;;;;;14.68;10.85;;;14.30;71.50;;;;;;6280328;22;20099;-47
2021/04/19 07:33:27;;;;;;;20.40;17.15;;;14.40;69.10;;;;;;6242128;22;20022;-46
2021/04/19 07:35:53;;;;;;;17.13;14.50;;;14.30;69.80;;;;;;6269911;22;20019;-45
2021/04/19 07:38:36;;;;;;;24.75;20.80;;;14.00;71.20;;;;;;6253011;22;20730;-46
2021/04/19 07:41:02;;;;;;;19.52;15.77;;;14.10;70.40;;;;;;6278945;22;20019;-45
2021/04/19 07:43:36;;;;;;;13.82;12.38;;;14.50;70.70;;;;;;6269260;22;20015;-42
2021/04/19 07:46:25;;;;;;;15.93;12.02;;;14.90;68.40;;;;;;6252772;22;20020;-44
2021/04/19 07:48:52;;;;;;;14.23;12.05;;;15.00;68.60;;;;;;6241635;22;20019;-46
2021/04/19 07:51:30;;;;;;;15.02;10.88;;;15.20;68.80;;;;;;6279117;22;20019;-46
2021/04/19 07:54:21;;;;;;;15.25;10.93;;;15.50;66.90;;;;;;6269369;22;20337;-45
2021/04/19 07:56:54;;;;;;;14.20;11.13;;;15.60;66.20;;;;;;6218536;22;20341;-44
2021/04/19 07:59:33;;;;;;;12.55;11.10;;;16.00;65.70;;;;;;6269097;22;20043;-46
2021/04/19 08:02:01;;;;;;;13.50;10.55;;;16.20;65.40;;;;;;6241440;22;20050;-45
2021/04/19 08:04:33;;;;;;;20.40;11.13;;;16.30;65.30;;;;;;6268643;22;20015;-47
2021/04/19 08:07:02;;;;;;;28.67;25.60;;;16.60;64.40;;;;;;6268923;22;20051;-45
2021/04/19 08:09:31;;;;;;;17.48;13.98;;;16.80;63.40;;;;;;6241698;22;20037;-44
2021/04/19 08:12:08;;;;;;;14.18;12.68;;;16.60;62.90;;;;;;6215878;22;20030;-44
2021/04/19 08:14:49;;;;;;;19.10;17.13;;;17.00;61.10;;;;;;6242109;22;20016;-47
2021/04/19 08:17:16;;;;;;;13.82;12.32;;;17.10;61.60;;;;;;6269321;22;20103;-44
2021/04/19 08:19:42;;;;;;;17.20;15.40;;;17.10;61.10;;;;;;6242569;22;20020;-46
2021/04/19 08:22:20;;;;;;;13.27;11.98;;;17.40;61.50;;;;;;6268368;22;20073;-44
2021/04/19 08:24:47;;;;;;;15.15;13.57;;;17.60;60.60;;;;;;6254446;22;20333;-45
2021/04/19 08:27:25;;;;;;;13.98;11.73;;;17.90;60.40;;;;;;6269956;22;20027;-47
2021/04/19 08:29:51;;;;;;;12.38;10.77;;;18.10;59.00;;;;;;6269476;22;20027;-43
2021/04/19 08:32:32;;;;;;;12.38;11.07;;;18.20;59.60;;;;;;6268652;22;20344;-45
2021/04/19 08:35:01;;;;;;;;;;;18.50;57.20;;;;;;6270035;22;20106;-47
2021/04/19 08:37:29;;;;;;;14.75;10.05;;;18.70;54.90;;;;;;6249265;22;19964;-43
2021/04/19 08:40:01;;;;;;;15.40;11.27;;;18.20;57.50;;;;;;6252324;22;20070;-46
2021/04/19 08:42:28;;;;;;;12.95;11.25;;;18.40;56.50;;;;;;6268952;22;20051;-46
2021/04/19 08:44:57;;;;;;;13.07;11.60;;;18.60;57.00;;;;;;6268573;22;20069;-44
2021/04/19 08:47:27;;;;;;;12.27;10.32;;;18.50;56.20;;;;;;6269001;22;20344;-45
2021/04/19 08:50:03;;;;;;;75.93;68.43;;;17.90;57.00;;;;;;6280247;22;20347;-43
2021/04/19 08:52:29;;;;;;;53.92;48.45;;;17.30;57.90;;;;;;6268768;22;20507;-45
2021/04/19 08:54:56;;;;;;;18.23;14.45;;;16.60;60.00;;;;;;6280616;22;20038;-46
2021/04/19 08:57:25;;;;;;;15.23;13.70;;;16.20;61.00;;;;;;6251841;22;20360;-44
2021/04/19 08:59:53;;;;;;;23.23;16.10;;;16.00;61.80;;;;;;6216217;22;20020;-47
2021/04/19 09:02:21;;;;;;;17.48;15.10;;;15.70;62.80;;;;;;6268120;22;20035;-47
2021/04/19 09:05:22;;;;;;;18.02;14.65;;;15.50;64.10;;;;;;6278818;22;20052;-43
2021/04/19 09:07:59;;;;;;;17.52;14.50;;;15.30;65.10;;;;;;6278732;22;20020;-44
2021/04/19 09:10:26;;;;;;;17.05;14.60;;;15.30;64.90;;;;;;6269691;22;20012;-45
2021/04/19 09:12:52;;;;;;;16.70;14.90;;;15.80;63.70;;;;;;6268764;22;20881;-44
2021/04/19 09:15:29;;;;;;;15.75;14.05;;;16.60;63.00;;;;;;6269469;22;20023;-47
2021/04/19 09:18:04;;;;;;;14.60;13.23;;;17.00;61.30;;;;;;6243352;22;20019;-46
2021/04/19 09:20:35;;;;;;;15.23;13.63;;;16.90;60.80;;;;;;6244833;22;20022;-44
2021/04/19 09:23:22;;;;;;;14.10;12.52;;;16.70;61.50;;;;;;6271110;22;20020;-45
2021/04/19 09:25:49;;;;;;;15.48;13.95;;;17.20;60.30;;;;;;6271990;22;20020;-47
2021/04/19 09:28:50;;;;;;;49.88;44.70;;;17.50;59.80;;;;;;6280777;22;20050;-43
2021/04/19 09:31:20;;;;;;;15.40;13.40;;;17.80;57.20;;;;;;6145464;23;20108;-45
2021/04/19 09:34:13;;;;;;;14.90;12.52;;;18.10;58.60;;;;;;6145464;23;20021;-45
2021/04/19 09:36:50;;;;;;;26.70;19.17;;;18.20;56.20;;;;;;6145164;23;20020;-46
2021/04/19 09:40:01;;;;;;;15.25;13.70;;;18.10;57.20;;;;;;6155656;23;20236;-47
2021/04/19 09:42:56;;;;;;;16.45;13.85;;;17.40;56.60;;;;;;6155092;23;20448;-44
2021/04/19 09:45:41;;;;;;;15.32;13.73;;;17.70;57.40;;;;;;6146112;23;20017;-47
2021/04/19 09:48:25;;;;;;;15.85;14.35;;;17.20;58.90;;;;;;6145608;23;20049;-44
2021/04/19 09:51:03;;;;;;;14.32;12.52;;;17.20;59.20;;;;;;6145666;23;20021;-43
2021/04/19 09:53:33;;;;;;;20.83;18.48;;;17.60;58.60;;;;;;6098397;23;20025;-46
2021/04/19 09:56:09;;;;;;;13.73;12.32;;;18.10;58.40;;;;;;6145816;23;20013;-45
2021/04/19 09:58:41;;;;;;;14.90;13.38;;;18.40;57.30;;;;;;6145289;23;20017;-45
2021/04/19 10:01:11;;;;;;;23.45;21.13;;;18.00;56.60;;;;;;6156072;23;20072;-51
2021/04/19 10:03:54;;;;;;;17.33;15.57;;;17.80;57.50;;;;;;6095870;23;20394;-47
2021/04/19 10:06:41;;;;;;;16.42;14.70;;;17.40;57.90;;;;;;6171645;23;20221;-45
2021/04/19 10:09:16;;;;;;;15.80;13.88;;;17.10;58.70;;;;;;6247235;23;20031;-45
2021/04/19 10:11:53;;;;;;;16.35;14.65;;;17.00;58.20;;;;;;6238805;23;20107;-42
2021/04/19 10:14:27;;;;;;;14.65;13.15;;;16.90;58.60;;;;;;6238422;23;20024;-46
2021/04/19 10:16:53;;;;;;;14.15;12.68;;;17.10;59.20;;;;;;6213055;23;20020;-43
2021/04/19 10:19:24;;;;;;;19.45;16.02;;;16.90;59.30;;;;;;6212138;23;20095;-44
2021/04/19 10:22:04;;;;;;;15.73;14.23;;;16.90;59.20;;;;;;6212744;23;20087;-44
2021/04/19 10:24:34;;;;;;;14.88;13.20;;;17.20;59.30;;;;;;6212848;23;20027;-43
2021/04/19 10:27:04;;;;;;;13.93;12.15;;;16.90;58.70;;;;;;6238030;23;20020;-43
2021/04/19 10:29:33;;;;;;;14.55;13.07;;;16.70;59.00;;;;;;6250336;23;20099;-43
2021/04/19 10:32:13;;;;;;;16.15;13.35;;;16.60;59.80;;;;;;6240908;23;20089;-43
2021/04/19 10:34:42;;;;;;;14.38;12.57;;;16.60;60.30;;;;;;6240602;23;20016;-43
2021/04/19 10:37:11;;;;;;;16.08;13.60;;;17.50;58.10;;;;;;6213737;23;20020;-44
2021/04/19 10:39:40;;;;;;;15.20;13.52;;;17.80;57.70;;;;;;6189828;23;20046;-43
2021/04/19 10:42:08;;;;;;;15.15;13.63;;;18.10;56.30;;;;;;6240527;23;20023;-45
2021/04/19 10:44:48;;;;;;;91.85;82.22;;;18.50;55.70;;;;;;6249335;23;20016;-46
2021/04/19 10:47:29;;;;;;;25.77;23.15;;;18.40;55.50;;;;;;6239359;23;20112;-44
2021/04/19 10:49:56;;;;;;;16.33;14.60;;;19.20;55.80;;;;;;6239833;23;20016;-43
2021/04/19 10:52:22;;;;;;;20.98;18.90;;;19.00;54.60;;;;;;6249136;23;20787;-46
2021/04/19 10:54:49;;;;;;;17.20;15.45;;;18.70;54.10;;;;;;6239795;23;20012;-43
2021/04/19 10:57:24;;;;;;;15.05;13.45;;;18.20;55.00;;;;;;6213067;23;20341;-43
2021/04/19 10:59:56;;;;;;;16.70;14.90;;;18.40;54.70;;;;;;6250258;23;20401;-46
2021/04/19 11:02:32;;;;;;;22.30;19.98;;;18.50;55.00;;;;;;6239163;23;20093;-45
2021/04/19 11:04:59;;;;;;;25.90;23.20;;;18.60;55.20;;;;;;6245337;22;20054;-45
2021/04/19 11:07:35;;;;;;;16.65;15.00;;;17.90;56.20;;;;;;6254618;22;20503;-43
2021/04/19 11:10:17;;;;;;;16.40;14.68;;;17.80;56.00;;;;;;6270812;22;20118;-43
2021/04/19 11:13:01;;;;;;;15.95;14.35;;;17.40;57.20;;;;;;6270972;22;20038;-45
2021/04/19 11:15:32;;;;;;;16.30;14.57;;;17.50;57.70;;;;;;6280364;22;20077;-43
2021/04/19 11:18:02;;;;;;;15.48;13.90;;;17.90;56.60;;;;;;6270092;22;20016;-43
2021/04/19 11:20:31;;;;;;;17.55;15.75;;;18.20;56.50;;;;;;6270238;22;20026;-42
2021/04/19 11:23:00;;;;;;;15.88;14.27;;;19.00;54.60;;;;;;6243633;22;20507;-42
2021/04/19 11:25:33;;;;;;;19.80;17.90;;;19.20;53.00;;;;;;6243294;22;20066;-46
2021/04/19 11:28:22;;;;;;;16.25;14.68;;;19.40;52.10;;;;;;6270531;22;20020;-46
2021/04/19 11:30:53;;;;;;;17.38;14.23;;;19.60;49.70;;;;;;6217866;22;20391;-44
2021/04/19 11:33:27;;;;;;;19.92;17.92;;;19.90;49.70;;;;;;6270731;22;20078;-43
2021/04/19 11:36:06;;;;;;;16.27;14.57;;;19.70;50.20;;;;;;6269686;22;20070;-44
2021/04/19 11:38:38;;;;;;;16.23;14.55;;;19.30;49.50;;;;;;6242513;22;20031;-47
2021/04/19 11:41:09;;;;;;;15.38;13.00;;;18.70;52.00;;;;;;6243118;22;20449;-45
2021/04/19 11:43:48;;;;;;;16.05;14.45;;;18.30;52.20;;;;;;6269228;22;20039;-44
2021/04/19 11:46:16;;;;;;;16.13;14.45;;;17.90;53.60;;;;;;6279507;22;20032;-46
2021/04/19 11:48:45;;;;;;;16.40;14.70;;;17.80;54.00;;;;;;6241823;22;20020;-43
2021/04/19 11:51:14;;;;;;;17.27;14.93;;;17.90;53.90;;;;;;6269378;22;20106;-42
2021/04/19 11:53:46;;;;;;;15.93;14.32;;;18.30;54.00;;;;;;6270084;22;20022;-45
2021/04/19 11:56:16;;;;;;;17.38;15.52;;;18.50;53.40;;;;;;6279670;22;20523;-43
2021/04/19 11:58:48;;;;;;;16.08;14.40;;;18.00;53.80;;;;;;6269968;22;20047;-42
2021/04/19 12:01:19;;;;;;;16.25;14.65;;;17.70;55.20;;;;;;6241578;22;20024;-44
2021/04/19 12:03:47;;;;;;;;;;;17.40;56.00;;;;;;6242579;22;20019;-43
2021/04/19 12:06:14;;;;;;;15.90;14.10;;;17.00;56.20;;;;;;6235212;23;19953;-44
2021/04/19 12:08:46;;;;;;;16.48;14.77;;;17.30;56.30;;;;;;6249118;22;20020;-45
2021/04/19 12:11:16;;;;;;;17.80;15.13;;;17.70;54.80;;;;;;6240388;22;20020;-44
2021/04/19 12:13:46;;;;;;;16.83;15.10;;;18.40;53.60;;;;;;6238428;22;20027;-42
2021/04/19 12:16:12;;;;;;;17.58;15.70;;;19.00;52.80;;;;;;6247806;23;20027;-43
2021/04/19 12:18:39;;;;;;;15.77;14.13;;;19.70;51.60;;;;;;6236801;23;20110;-44
2021/04/19 12:21:07;;;;;;;17.73;16.02;;;20.40;51.30;;;;;;6239116;23;20377;-44
2021/04/19 12:23:36;;;;;;;16.10;14.48;;;20.70;48.90;;;;;;6237089;23;20099;-43
2021/04/19 12:26:03;;;;;;;17.95;15.05;;;20.80;48.80;;;;;;6247902;23;20126;-45
2021/04/19 12:28:30;;;;;;;15.77;14.07;;;20.60;48.50;;;;;;6238587;22;20103;-44
2021/04/19 12:30:56;;;;;;;15.82;14.20;;;20.40;48.80;;;;;;6238905;22;20095;-47
2021/04/19 12:33:23;;;;;;;13.73;12.32;;;20.50;48.40;;;;;;6239731;22;20016;-46
2021/04/19 12:35:50;;;;;;;14.43;12.93;;;20.50;45.90;;;;;;6237896;22;20020;-44
2021/04/19 12:38:17;;;;;;;13.70;12.30;;;20.60;45.70;;;;;;6238685;22;20016;-45
2021/04/19 12:40:45;;;;;;;14.55;13.02;;;20.50;44.60;;;;;;6236417;23;20020;-42
2021/04/19 12:43:12;;;;;;;14.20;12.80;;;21.00;44.90;;;;;;6238638;22;20101;-46
2021/04/19 12:45:45;;;;;;;17.33;15.68;;;21.00;44.30;;;;;;6238415;22;20016;-48
2021/04/19 12:48:17;;;;;;;20.25;18.35;;;21.10;43.50;;;;;;6238318;23;20115;-46
2021/04/19 12:50:52;;;;;;;14.07;12.68;;;21.20;42.90;;;;;;6237434;22;20047;-45
2021/04/19 12:53:40;;;;;;;14.40;12.90;;;21.50;43.00;;;;;;6237767;22;20020;-45
2021/04/19 12:56:18;;;;;;;14.90;13.45;;;21.30;42.80;;;;;;6237275;22;20304;-45
2021/04/19 12:58:45;;;;;;;16.63;15.13;;;21.70;42.50;;;;;;6248192;22;20016;-48
2021/04/19 13:01:23;;;;;;;14.70;13.32;;;21.70;41.90;;;;;;6239056;22;20396;-43
2021/04/19 13:03:49;;;;;;;17.92;16.25;;;22.20;43.00;;;;;;6248001;23;20023;-48